Terminal Aerodrome Forecast
Issued by NWS

Home | Current Version | Previous Version | Text Only | Print | Product List | Glossary On
Versions: 1 2 3 4 5 6 7 8 9 10 11 12 13 14 15
000
FTUS43 KMPX 240909 AAB
TAFRNH
TAF AMD
KRNH 240909Z 2409/2506 22005KT P6SM BKN007 OVC012
     FM241500 26007KT P6SM BKN015 OVC025
     FM241700 29010KT P6SM SCT030 SCT200
     FM241900 28010KT P6SM SCT250
     FM250200 26003KT P6SM SCT250=

USA.gov is the U.S. government's official web portal to all federal, state and local government web resources and services.